Terminal Aerodrome Forecast
Issued by NWS Shreveport, LA

Home | Current Version | Previous Version | Text Only | Print | Product List | Glossary On
Versions: 1 2 3 4 5 6 7 8 9 10 11 12 13 14 15 16 17 18 19
280
FTUS44 KSHV 191907 AAA
TAFELD
TAF AMD
KELD 191907Z 1919/2018 10008KT P6SM SCT020
      TEMPO 1919/1920 BKN015
     FM200000 12005KT P6SM BKN250
      TEMPO 2009/2013 3SM BR
     FM201300 14008KT P6SM BKN120=

USA.gov is the U.S. government's official web portal to all federal, state and local government web resources and services.